Time;durP1;ratioP1;P1;durP2;ratioP2;P2;SDS_P1;SDS_P2;PMS_P1;PMS_P2;Temp;Humidity;BMP_temperature;BMP_pressure;BME280_temperature;BME280_humidity;BME280_pressure;Samples;Min_cycle;Max_cycle;Signal;HPM_P1;HPM_P2
2023/03/25 00:02:15;;;;;;;2.83;0.70;;;13.70;67.90;;;;;;2541478;54;21389;-69
2023/03/25 00:04:41;;;;;;;3.15;0.80;;;13.70;67.90;;;;;;2303625;55;21488;-67
2023/03/25 00:07:08;;;;;;;3.45;0.90;;;13.70;68.00;;;;;;2540979;54;21015;-69
2023/03/25 00:09:37;;;;;;;2.72;0.80;;;13.70;68.10;;;;;;2542080;54;20947;-68
2023/03/25 00:12:04;;;;;;;2.50;0.80;;;13.70;68.10;;;;;;2302636;55;20947;-67
2023/03/25 00:14:31;;;;;;;2.70;0.75;;;13.60;68.20;;;;;;2542142;54;21059;-69
2023/03/25 00:17:00;;;;;;;1.65;0.52;;;13.60;68.30;;;;;;2541559;54;20924;-69
2023/03/25 00:19:26;;;;;;;2.03;0.70;;;13.60;68.40;;;;;;2541968;54;20948;-68
2023/03/25 00:21:53;;;;;;;2.62;0.80;;;13.60;68.50;;;;;;2542258;54;20952;-69
2023/03/25 00:24:19;;;;;;;2.00;0.60;;;13.60;68.50;;;;;;2541316;53;20989;-67
2023/03/25 00:26:47;;;;;;;2.35;0.68;;;13.60;68.60;;;;;;2304669;55;20956;-67
2023/03/25 00:29:14;;;;;;;2.03;0.57;;;13.60;68.60;;;;;;2302656;55;21099;-67
2023/03/25 00:31:41;;;;;;;3.83;1.00;;;13.50;68.50;;;;;;2303990;55;21019;-70
2023/03/25 00:34:08;;;;;;;3.75;0.75;;;13.60;68.70;;;;;;2306261;55;21134;-67
2023/03/25 00:36:37;;;;;;;2.80;0.90;;;13.60;68.70;;;;;;2302965;55;21047;-68
2023/03/25 00:39:04;;;;;;;2.15;0.70;;;13.50;68.60;;;;;;2302793;55;20940;-69
2023/03/25 00:41:31;;;;;;;2.78;0.70;;;13.50;68.70;;;;;;2303171;55;21325;-68
2023/03/25 00:43:58;;;;;;;2.03;0.70;;;13.50;69.40;;;;;;2302700;54;21487;-67
2023/03/25 00:46:32;;;;;;;2.25;0.70;;;13.50;68.60;;;;;;2541877;54;21140;-67
2023/03/25 00:49:03;;;;;;;2.90;0.90;;;13.50;68.60;;;;;;2541368;54;20948;-68
2023/03/25 00:51:30;;;;;;;2.03;0.77;;;13.50;68.50;;;;;;2541653;54;20936;-69
2023/03/25 00:53:59;;;;;;;5.87;0.98;;;13.50;68.50;;;;;;2541525;54;21258;-67
2023/03/25 01:00:07;;;;;;;1.55;0.50;;;13.40;67.80;;;;;;2275639;55;21075;-68
2023/03/25 01:02:33;;;;;;;1.33;0.55;;;13.40;68.30;;;;;;2537782;54;20939;-67
2023/03/25 01:05:00;;;;;;;1.42;0.47;;;13.40;68.30;;;;;;2300278;55;20967;-68
2023/03/25 01:07:30;;;;;;;0.80;0.30;;;13.30;68.00;;;;;;2540702;54;21011;-68
2023/03/25 01:10:00;;;;;;;2.33;0.57;;;13.30;67.90;;;;;;2302078;54;21083;-68
2023/03/25 01:12:26;;;;;;;1.12;0.40;;;13.30;68.00;;;;;;2302192;55;21962;-68
2023/03/25 01:14:53;;;;;;;0.57;0.25;;;13.30;67.80;;;;;;2303311;55;20971;-69
2023/03/25 01:17:21;;;;;;;1.77;0.45;;;13.20;67.70;;;;;;2541565;54;20979;-68
2023/03/25 01:19:48;;;;;;;1.98;0.40;;;13.20;67.60;;;;;;2542123;54;21570;-67
2023/03/25 01:22:14;;;;;;;2.12;0.68;;;13.20;67.50;;;;;;2541588;54;20956;-69
2023/03/25 01:24:40;;;;;;;1.05;0.40;;;13.10;67.50;;;;;;2542193;54;20944;-67
2023/03/25 01:27:07;;;;;;;1.67;0.50;;;13.10;67.50;;;;;;2541643;53;21060;-69
2023/03/25 01:29:33;;;;;;;0.52;0.30;;;13.10;67.50;;;;;;2300788;55;20968;-68
2023/03/25 01:32:01;;;;;;;1.65;0.30;;;13.10;67.60;;;;;;2302267;55;20947;-69
2023/03/25 01:34:27;;;;;;;1.00;0.30;;;13.00;67.50;;;;;;2303380;55;20952;-68
2023/03/25 01:36:54;;;;;;;1.15;0.30;;;13.00;67.50;;;;;;2302795;55;21042;-67
2023/03/25 01:39:20;;;;;;;1.80;0.52;;;12.90;67.50;;;;;;2541354;53;21464;-70
2023/03/25 01:41:47;;;;;;;0.37;0.30;;;12.90;67.50;;;;;;2302913;55;20976;-68
2023/03/25 01:45:10;;;;;;;2.70;0.40;;;12.90;67.60;;;;;;2302624;55;21717;-70
2023/03/25 01:47:36;;;;;;;1.05;0.40;;;12.90;66.80;;;;;;2303078;55;20999;-67
2023/03/25 01:50:09;;;;;;;3.97;0.60;;;12.90;67.70;;;;;;2541738;54;20983;-69
2023/03/25 01:52:37;;;;;;;3.53;0.47;;;12.90;67.40;;;;;;2303350;55;22008;-68
2023/03/25 01:55:04;;;;;;;0.75;0.30;;;12.90;67.60;;;;;;2302435;55;20979;-69
2023/03/25 01:57:33;;;;;;;2.62;0.60;;;12.80;67.60;;;;;;2540427;54;21595;-68
2023/03/25 02:00:00;;;;;;;1.20;0.30;;;12.80;67.60;;;;;;2301334;55;21090;-69
2023/03/25 02:02:33;;;;;;;5.07;0.70;;;12.80;67.70;;;;;;2540244;54;20951;-67
2023/03/25 02:05:06;;;;;;;0.90;0.45;;;12.70;67.70;;;;;;2301368;55;21870;-68
2023/03/25 02:07:33;;;;;;;1.05;0.40;;;12.70;67.80;;;;;;2301450;55;20980;-70
2023/03/25 02:10:01;;;;;;;1.35;0.40;;;12.70;67.90;;;;;;2540292;54;20999;-68
2023/03/25 02:12:27;;;;;;;2.08;0.40;;;12.70;68.00;;;;;;2539077;54;22117;-67
2023/03/25 02:14:54;;;;;;;1.80;0.40;;;12.70;68.10;;;;;;2540330;54;21350;-70
2023/03/25 02:17:36;;;;;;;2.28;0.45;;;12.70;68.20;;;;;;2300879;55;21007;-70
2023/03/25 02:27:13;;;;;;;1.75;0.57;;;12.70;68.00;;;;;;2540281;54;21996;-69
2023/03/25 02:29:57;;;;;;;1.08;0.35;;;12.60;66.90;;;;;;2301501;55;20956;-69
2023/03/25 02:32:48;;;;;;;1.37;0.37;;;12.60;67.70;;;;;;2539629;54;20951;-69
2023/03/25 02:35:23;;;;;;;0.98;0.40;;;12.60;68.00;;;;;;2539674;54;21007;-69
2023/03/25 02:39:46;;;;;;;1.58;0.45;;;12.60;68.30;;;;;;2300646;55;21014;-68
2023/03/25 02:42:52;;;;;;;1.33;0.40;;;12.50;68.20;;;;;;2540096;54;21077;-69
2023/03/25 02:45:28;;;;;;;2.10;0.68;;;12.50;68.10;;;;;;2539757;54;21287;-70
2023/03/25 02:47:58;;;;;;;0.95;0.40;;;12.50;68.00;;;;;;2302480;55;21551;-68
2023/03/25 02:50:28;;;;;;;1.55;0.52;;;12.40;68.20;;;;;;2301962;55;21079;-68
2023/03/25 02:52:59;;;;;;;1.35;0.60;;;12.40;68.20;;;;;;2539681;54;21026;-69
2023/03/25 02:55:25;;;;;;;2.35;0.70;;;12.40;68.20;;;;;;2539785;54;20985;-69
2023/03/25 02:57:53;;;;;;;2.45;0.70;;;12.40;68.30;;;;;;2540460;54;20976;-69
2023/03/25 03:00:23;;;;;;;3.97;0.62;;;12.30;68.90;;;;;;2301118;55;21512;-68
2023/03/25 03:02:58;;;;;;;2.03;0.80;;;12.30;68.20;;;;;;2304784;55;20981;-70
2023/03/25 03:05:35;;;;;;;2.25;0.65;;;12.30;68.30;;;;;;2539266;54;20968;-69
2023/03/25 03:12:32;;;;;;;1.62;0.52;;;12.30;68.30;;;;;;2301768;55;21272;-70
2023/03/25 03:15:31;;;;;;;3.55;0.57;;;12.30;67.60;;;;;;2301349;55;20980;-70
2023/03/25 03:21:08;;;;;;;2.42;0.60;;;12.30;68.40;;;;;;2539960;54;21349;-67
2023/03/25 03:23:37;;;;;;;3.83;0.57;;;12.30;67.90;;;;;;2301650;55;20972;-70
2023/03/25 03:26:10;;;;;;;5.32;0.70;;;12.30;69.00;;;;;;2300849;55;20967;-69
2023/03/25 03:28:44;;;;;;;2.45;0.60;;;12.30;69.10;;;;;;2301859;55;21650;-68
2023/03/25 03:31:52;;;;;;;0.75;0.43;;;12.20;69.00;;;;;;2541164;54;20997;-70
2023/03/25 03:34:27;;;;;;;2.95;0.80;;;12.30;68.60;;;;;;2302314;55;20936;-68
2023/03/25 03:36:54;;;;;;;1.65;0.60;;;12.30;69.10;;;;;;2303549;55;20972;-68
2023/03/25 03:39:36;;;;;;;3.10;0.50;;;12.30;69.30;;;;;;2540796;54;20955;-67
2023/03/25 03:42:09;;;;;;;6.00;1.00;;;12.30;69.00;;;;;;2541578;54;20971;-68
2023/03/25 03:44:37;;;;;;;4.43;0.75;;;12.30;69.10;;;;;;2302673;55;20932;-69
2023/03/25 03:47:06;;;;;;;2.62;0.70;;;12.30;69.20;;;;;;2302899;55;21510;-68
2023/03/25 03:49:37;;;;;;;3.53;0.68;;;12.40;69.20;;;;;;2302932;55;21005;-68
2023/03/25 03:52:25;;;;;;;2.15;0.60;;;12.40;69.20;;;;;;2541532;54;21074;-70
2023/03/25 03:54:56;;;;;;;3.95;0.95;;;12.30;68.40;;;;;;2542043;54;20992;-70
2023/03/25 03:57:31;;;;;;;2.45;0.60;;;12.30;68.60;;;;;;2302780;55;21993;-69
2023/03/25 04:00:23;;;;;;;2.72;0.50;;;12.40;68.60;;;;;;2541394;54;20948;-70
2023/03/25 04:02:56;;;;;;;3.60;0.50;;;12.30;68.00;;;;;;2306202;55;21103;-68
2023/03/25 04:05:23;;;;;;;2.15;0.50;;;12.30;68.40;;;;;;2302374;55;20960;-69
2023/03/25 04:07:58;;;;;;;1.25;0.40;;;12.30;68.30;;;;;;2542489;54;21002;-69
2023/03/25 04:10:38;;;;;;;1.58;0.50;;;12.30;68.10;;;;;;2541516;54;20971;-68
2023/03/25 04:13:07;;;;;;;3.33;0.50;;;12.30;67.80;;;;;;2303003;55;22028;-69
2023/03/25 04:15:34;;;;;;;1.92;0.47;;;12.30;68.10;;;;;;2306006;54;21585;-69
2023/03/25 04:18:02;;;;;;;3.42;0.60;;;12.20;68.00;;;;;;2299498;55;21123;-68
2023/03/25 04:20:32;;;;;;;2.40;0.65;;;12.20;68.00;;;;;;2541465;54;21106;-69
2023/03/25 04:22:59;;;;;;;2.20;0.43;;;12.20;68.00;;;;;;2541696;54;21055;-70
2023/03/25 04:25:28;;;;;;;2.75;0.60;;;12.20;67.90;;;;;;2541169;54;21028;-68
2023/03/25 04:27:58;;;;;;;1.10;0.35;;;12.20;68.00;;;;;;2302921;55;20983;-68
2023/03/25 04:30:27;;;;;;;2.07;0.73;;;12.20;67.70;;;;;;2303493;55;20962;-69
2023/03/25 04:32:53;;;;;;;3.00;0.60;;;12.10;67.60;;;;;;2302535;55;22624;-67
2023/03/25 04:35:19;;;;;;;4.97;0.93;;;12.10;67.60;;;;;;2302330;55;21434;-69
2023/03/25 04:37:47;;;;;;;1.80;0.50;;;12.10;67.80;;;;;;2541789;54;21315;-68
2023/03/25 04:40:20;;;;;;;0.98;0.40;;;12.10;67.70;;;;;;2302440;55;20959;-69
2023/03/25 04:42:48;;;;;;;1.55;0.50;;;12.10;67.70;;;;;;2541946;54;20949;-69
2023/03/25 04:45:15;;;;;;;1.08;0.40;;;12.10;67.70;;;;;;2541284;54;20983;-68
2023/03/25 04:47:45;;;;;;;2.22;0.60;;;12.00;67.70;;;;;;2541584;54;21452;-68
2023/03/25 04:50:23;;;;;;;1.58;0.50;;;12.00;67.70;;;;;;2541169;54;20948;-69
2023/03/25 04:52:49;;;;;;;2.40;0.52;;;12.00;67.30;;;;;;2304638;55;21945;-69
2023/03/25 04:55:19;;;;;;;2.08;0.40;;;12.00;67.70;;;;;;2303171;55;20959;-68
2023/03/25 04:57:46;;;;;;;1.67;0.50;;;12.00;67.70;;;;;;2302769;55;20931;-68
2023/03/25 05:00:16;;;;;;;2.20;0.47;;;12.00;67.60;;;;;;2541398;54;20936;-68
2023/03/25 05:02:44;;;;;;;2.87;0.50;;;12.00;67.70;;;;;;2303139;55;21439;-69
2023/03/25 05:05:18;;;;;;;3.30;0.60;;;12.00;67.70;;;;;;2302538;55;21487;-68
2023/03/25 05:07:46;;;;;;;2.33;0.60;;;12.00;67.70;;;;;;2541562;54;21087;-68
2023/03/25 05:10:12;;;;;;;3.10;0.60;;;12.00;67.70;;;;;;2540724;54;21938;-68
2023/03/25 05:12:39;;;;;;;3.17;0.55;;;12.00;67.70;;;;;;2541527;54;20932;-70
2023/03/25 05:15:08;;;;;;;0.85;0.40;;;11.90;67.40;;;;;;2302710;55;21530;-71
2023/03/25 05:17:34;;;;;;;1.25;0.40;;;11.90;67.40;;;;;;2541806;54;21015;-71
2023/03/25 05:20:00;;;;;;;2.35;0.50;;;11.90;67.50;;;;;;2302681;55;20943;-71
2023/03/25 05:22:26;;;;;;;1.65;0.30;;;11.90;67.50;;;;;;2302188;55;20983;-71
2023/03/25 05:24:53;;;;;;;0.70;0.30;;;11.90;67.60;;;;;;2541879;54;20960;-70
2023/03/25 05:27:20;;;;;;;1.87;0.50;;;11.90;67.60;;;;;;2302675;55;21015;-68
2023/03/25 05:29:46;;;;;;;1.48;0.50;;;11.90;67.60;;;;;;2303420;55;21003;-69
2023/03/25 05:32:16;;;;;;;2.28;0.52;;;11.90;67.60;;;;;;2302618;55;20924;-69
2023/03/25 05:34:45;;;;;;;1.80;0.40;;;11.90;67.70;;;;;;2541708;54;20983;-68
2023/03/25 05:37:14;;;;;;;1.62;0.40;;;11.90;67.50;;;;;;2306472;55;21023;-67
2023/03/25 05:39:40;;;;;;;3.22;0.50;;;11.80;67.60;;;;;;2283920;55;20968;-68
2023/03/25 05:42:06;;;;;;;2.60;0.50;;;11.80;67.60;;;;;;2541599;54;20976;-67
2023/03/25 05:44:33;;;;;;;2.37;0.50;;;11.80;67.70;;;;;;2541151;54;20955;-68
2023/03/25 05:47:00;;;;;;;2.22;0.52;;;11.80;67.70;;;;;;2303308;55;20980;-69
2023/03/25 05:49:26;;;;;;;2.80;0.50;;;11.80;67.70;;;;;;2541343;54;20961;-68
2023/03/25 05:51:54;;;;;;;2.42;0.45;;;11.80;67.70;;;;;;2303086;55;20923;-67
2023/03/25 05:54:25;;;;;;;2.25;0.60;;;11.80;67.70;;;;;;2541195;54;22031;-69
2023/03/25 05:56:51;;;;;;;1.35;0.40;;;11.80;67.70;;;;;;2541411;54;21984;-69
2023/03/25 05:59:19;;;;;;;1.02;0.30;;;11.80;67.80;;;;;;2541335;54;20999;-69
2023/03/25 06:01:45;;;;;;;1.40;0.40;;;11.80;67.90;;;;;;2303837;55;21031;-72
2023/03/25 06:04:15;;;;;;;1.42;0.40;;;11.80;67.90;;;;;;2306489;55;20981;-70
2023/03/25 06:06:42;;;;;;;1.30;0.30;;;11.80;68.00;;;;;;2540853;53;21001;-70
2023/03/25 06:09:10;;;;;;;0.93;0.30;;;11.80;67.90;;;;;;2541618;54;21012;-69
2023/03/25 06:11:45;;;;;;;1.67;0.30;;;11.80;67.80;;;;;;2302240;55;21942;-71
2023/03/25 06:14:11;;;;;;;0.70;0.30;;;11.90;68.10;;;;;;2540858;54;21014;-71
2023/03/25 06:16:38;;;;;;;1.50;0.37;;;11.90;68.10;;;;;;2302886;55;21979;-70
2023/03/25 06:19:04;;;;;;;1.98;0.50;;;11.90;68.10;;;;;;2303269;55;21573;-70
2023/03/25 06:21:32;;;;;;;0.73;0.20;;;11.90;68.00;;;;;;2302452;55;21134;-70
2023/03/25 06:23:59;;;;;;;1.27;0.30;;;11.90;68.10;;;;;;2541337;54;20964;-70
2023/03/25 06:26:25;;;;;;;0.73;0.25;;;11.90;68.10;;;;;;2302124;54;20951;-70
2023/03/25 06:28:51;;;;;;;1.23;0.30;;;11.90;68.20;;;;;;2542310;54;20920;-70
2023/03/25 06:31:21;;;;;;;2.62;0.43;;;11.90;68.70;;;;;;2513658;54;22108;-69
2023/03/25 06:33:48;;;;;;;1.55;0.43;;;11.90;68.70;;;;;;2303465;54;20993;-70
2023/03/25 06:36:17;;;;;;;1.17;0.40;;;12.00;68.20;;;;;;2541845;54;20979;-71
2023/03/25 06:38:49;;;;;;;2.60;0.43;;;12.00;68.40;;;;;;2542039;53;22002;-71
2023/03/25 06:41:23;;;;;;;1.40;0.35;;;12.00;68.20;;;;;;2302513;55;20931;-69
2023/03/25 06:43:50;;;;;;;2.37;0.55;;;12.00;68.30;;;;;;2542222;54;21478;-72
2023/03/25 06:46:17;;;;;;;1.95;0.45;;;12.00;68.40;;;;;;2541320;54;20940;-72
2023/03/25 06:48:44;;;;;;;1.92;0.40;;;12.10;68.50;;;;;;2303209;55;21015;-71
2023/03/25 06:51:14;;;;;;;1.02;0.30;;;12.10;68.40;;;;;;2541393;54;20955;-71
2023/03/25 06:53:40;;;;;;;1.12;0.32;;;12.10;68.30;;;;;;2541661;54;21568;-71
2023/03/25 06:56:08;;;;;;;1.87;0.40;;;12.10;68.50;;;;;;2541599;54;21114;-70
2023/03/25 06:58:35;;;;;;;1.35;0.30;;;12.10;68.50;;;;;;2541549;54;20975;-70
2023/03/25 07:01:05;;;;;;;2.58;0.45;;;12.20;68.70;;;;;;2302695;55;20967;-70
2023/03/25 07:03:32;;;;;;;2.70;0.47;;;12.20;68.60;;;;;;2302515;55;20963;-72
2023/03/25 07:05:58;;;;;;;2.33;0.40;;;12.20;68.60;;;;;;2306548;55;20945;-71
2023/03/25 07:08:24;;;;;;;0.85;0.30;;;12.10;68.50;;;;;;2302609;55;21472;-71
2023/03/25 07:10:52;;;;;;;2.62;0.40;;;12.20;68.60;;;;;;2303409;54;20983;-71
2023/03/25 07:13:20;;;;;;;2.20;0.43;;;12.30;68.70;;;;;;2302466;55;21278;-71
2023/03/25 07:15:47;;;;;;;2.85;0.40;;;12.30;68.40;;;;;;2542130;54;20957;-68
2023/03/25 07:18:13;;;;;;;1.50;0.40;;;12.30;68.40;;;;;;2542081;54;21019;-69
2023/03/25 07:20:41;;;;;;;1.80;0.50;;;12.30;68.50;;;;;;2305330;55;21017;-69
2023/03/25 07:23:08;;;;;;;1.50;0.50;;;12.30;68.40;;;;;;2283145;55;21010;-69
2023/03/25 07:25:35;;;;;;;4.25;0.40;;;12.40;68.50;;;;;;2300994;54;20984;-71
2023/03/25 07:28:02;;;;;;;1.48;0.50;;;12.40;68.50;;;;;;2524247;54;20920;-70
2023/03/25 07:30:28;;;;;;;0.82;0.30;;;12.40;68.50;;;;;;2540598;53;20949;-69
2023/03/25 07:32:55;;;;;;;1.85;0.70;;;12.40;68.50;;;;;;2542016;54;21043;-70
2023/03/25 07:35:22;;;;;;;2.85;0.50;;;12.40;68.40;;;;;;2303059;55;21483;-69
2023/03/25 07:37:48;;;;;;;1.45;0.50;;;12.40;68.40;;;;;;2542137;54;20936;-69
2023/03/25 07:40:14;;;;;;;1.90;0.50;;;12.50;68.60;;;;;;2303445;55;20984;-70
2023/03/25 07:42:41;;;;;;;1.60;0.60;;;12.50;68.70;;;;;;2300855;55;21486;-70
2023/03/25 07:45:07;;;;;;;3.60;0.60;;;12.50;68.70;;;;;;2298256;55;21027;-70
2023/03/25 07:47:34;;;;;;;3.70;0.70;;;12.50;68.80;;;;;;2535876;54;20991;-70
2023/03/25 07:50:00;;;;;;;2.95;0.80;;;12.50;68.70;;;;;;2301133;55;20929;-70
2023/03/25 07:52:27;;;;;;;2.50;0.60;;;12.60;68.90;;;;;;2296948;55;20911;-70
2023/03/25 07:54:54;;;;;;;2.55;0.80;;;12.60;69.10;;;;;;2298495;55;20975;-70
2023/03/25 07:57:20;;;;;;;3.15;0.70;;;12.60;69.10;;;;;;2535530;54;21467;-70
2023/03/25 07:59:47;;;;;;;1.65;0.57;;;12.60;68.90;;;;;;2536785;54;20995;-70
2023/03/25 08:02:13;;;;;;;2.30;0.80;;;12.70;69.00;;;;;;2535595;54;21019;-70
2023/03/25 08:04:39;;;;;;;3.95;1.10;;;12.70;68.90;;;;;;2298022;55;20963;-70
2023/03/25 08:07:06;;;;;;;3.53;0.68;;;12.70;68.90;;;;;;2536774;54;20944;-70
2023/03/25 08:09:33;;;;;;;2.72;0.60;;;12.80;68.70;;;;;;2297544;55;20947;-71
2023/03/25 08:11:59;;;;;;;1.90;0.60;;;12.80;68.90;;;;;;2298368;55;20974;-70
2023/03/25 08:14:26;;;;;;;2.92;0.80;;;12.80;68.90;;;;;;2297777;55;20996;-68
2023/03/25 08:16:52;;;;;;;2.70;0.70;;;12.80;68.80;;;;;;2299125;55;20984;-69
2023/03/25 08:19:18;;;;;;;3.40;0.68;;;12.90;69.10;;;;;;2302010;55;21332;-69
2023/03/25 08:21:45;;;;;;;2.08;0.60;;;12.90;69.00;;;;;;2298036;54;21752;-69
2023/03/25 08:24:14;;;;;;;3.47;0.85;;;12.80;68.90;;;;;;2298805;55;21900;-69
2023/03/25 08:26:40;;;;;;;3.42;0.50;;;13.00;69.20;;;;;;2536936;54;21392;-71
2023/03/25 08:29:08;;;;;;;3.15;0.70;;;13.00;69.30;;;;;;2298723;55;20967;-70
2023/03/25 08:31:37;;;;;;;2.22;0.60;;;13.10;69.40;;;;;;2536402;54;20992;-70
2023/03/25 08:34:04;;;;;;;3.47;0.65;;;13.10;70.10;;;;;;2298611;55;20972;-71
2023/03/25 08:36:33;;;;;;;2.40;0.57;;;13.20;69.60;;;;;;2536128;54;20928;-71
2023/03/25 08:39:06;;;;;;;2.72;0.60;;;13.30;69.60;;;;;;2537503;54;20975;-69
2023/03/25 08:41:32;;;;;;;3.78;0.82;;;13.30;69.60;;;;;;2298346;54;21063;-71
2023/03/25 08:43:58;;;;;;;2.65;0.55;;;13.30;69.50;;;;;;2298977;55;21401;-70
2023/03/25 08:46:25;;;;;;;3.58;0.77;;;13.40;69.40;;;;;;2298640;55;20952;-71
2023/03/25 08:48:52;;;;;;;2.40;0.60;;;13.40;69.20;;;;;;2299234;55;21348;-69
2023/03/25 08:51:19;;;;;;;3.12;0.50;;;13.50;69.30;;;;;;2537142;53;21607;-69
2023/03/25 08:53:45;;;;;;;2.10;0.57;;;13.50;69.20;;;;;;2537143;54;20971;-70
2023/03/25 08:56:12;;;;;;;4.75;1.05;;;13.50;69.20;;;;;;2537662;54;21526;-69
2023/03/25 08:58:38;;;;;;;4.47;1.67;;;13.60;69.40;;;;;;2537219;54;20968;-70
2023/03/25 09:01:05;;;;;;;7.28;1.48;;;13.50;69.20;;;;;;2536961;53;21080;-69
2023/03/25 09:03:31;;;;;;;4.45;1.23;;;13.70;69.40;;;;;;2536956;54;20955;-70
2023/03/25 09:06:02;;;;;;;4.90;1.10;;;13.70;69.20;;;;;;2537614;54;20928;-70
2023/03/25 09:08:28;;;;;;;5.05;1.10;;;13.80;69.10;;;;;;2509978;54;21082;-69
2023/03/25 09:10:55;;;;;;;3.85;0.90;;;13.80;69.00;;;;;;2537348;54;20948;-70
2023/03/25 09:13:21;;;;;;;4.25;1.10;;;13.80;69.00;;;;;;2299049;55;20916;-70
2023/03/25 09:15:47;;;;;;;2.40;0.80;;;13.90;69.00;;;;;;2537340;54;21966;-70
2023/03/25 09:18:16;;;;;;;4.90;1.00;;;13.90;69.10;;;;;;2298867;55;20964;-70
2023/03/25 09:20:46;;;;;;;4.75;0.95;;;13.90;69.10;;;;;;2536368;54;21423;-70
2023/03/25 09:23:13;;;;;;;2.58;0.88;;;14.00;69.30;;;;;;2536549;53;20953;-70
2023/03/25 09:25:39;;;;;;;4.43;0.80;;;14.00;69.30;;;;;;2535108;53;20969;-69
2023/03/25 09:28:05;;;;;;;4.70;0.70;;;14.00;69.00;;;;;;2536575;54;20996;-70
2023/03/25 09:30:32;;;;;;;4.10;0.93;;;14.00;68.80;;;;;;2535339;54;22024;-71
2023/03/25 09:32:59;;;;;;;2.80;0.70;;;14.10;68.70;;;;;;2298633;55;20960;-69
2023/03/25 09:35:26;;;;;;;3.87;0.50;;;14.10;68.80;;;;;;2298377;55;20979;-70
2023/03/25 09:37:52;;;;;;;2.40;0.60;;;14.20;68.80;;;;;;2537167;54;21070;-69
2023/03/25 09:40:19;;;;;;;2.78;0.70;;;14.20;68.60;;;;;;2536730;54;20968;-69
2023/03/25 09:43:16;;;;;;;2.72;0.90;;;14.20;68.60;;;;;;2536454;54;20947;-69
2023/03/25 09:45:46;;;;;;;7.43;2.62;;;14.30;67.80;;;;;;2298610;55;22049;-70
2023/03/25 09:48:55;;;;;;;7.62;4.25;;;14.30;68.50;;;;;;2298491;55;21466;-69
2023/03/25 09:51:30;;;;;;;4.62;2.40;;;14.40;67.30;;;;;;2536388;54;20944;-70
2023/03/25 09:57:29;;;;;;;3.33;1.40;;;14.30;68.30;;;;;;2299261;55;21035;-69
2023/03/25 09:59:56;;;;;;;2.87;0.70;;;14.50;66.90;;;;;;2298756;55;21314;-70
2023/03/25 10:02:43;;;;;;;2.67;0.88;;;14.50;68.20;;;;;;2536295;54;21004;-69
2023/03/25 10:05:48;;;;;;;2.72;0.70;;;14.50;67.30;;;;;;2536453;54;20939;-70
2023/03/25 10:09:54;;;;;;;1.08;0.52;;;14.50;67.80;;;;;;2298251;55;21011;-74
2023/03/25 10:15:03;;;;;;;1.40;0.50;;;14.50;67.20;;;;;;2535592;54;21472;-70
2023/03/25 10:17:36;;;;;;;1.30;0.40;;;14.50;67.60;;;;;;2300353;54;21080;-70
2023/03/25 10:23:16;;;;;;;1.37;0.43;;;14.50;67.60;;;;;;2536138;53;21083;-71
2023/03/25 10:25:44;;;;;;;0.93;0.30;;;14.50;66.10;;;;;;2534923;54;20964;-70
2023/03/25 10:28:16;;;;;;;1.40;0.50;;;14.50;67.60;;;;;;2536013;54;20983;-70
2023/03/25 10:30:44;;;;;;;1.60;0.60;;;14.50;67.50;;;;;;2535497;53;21583;-70
2023/03/25 10:33:37;;;;;;;1.37;0.40;;;14.50;67.70;;;;;;2297911;55;21068;-70
2023/03/25 10:36:05;;;;;;;1.85;0.50;;;14.50;66.70;;;;;;2536014;54;21636;-70
2023/03/25 10:38:32;;;;;;;1.70;0.45;;;14.60;67.80;;;;;;2297656;55;20955;-69
2023/03/25 10:41:10;;;;;;;0.93;0.35;;;14.60;67.80;;;;;;2536563;54;20952;-70
2023/03/25 10:43:40;;;;;;;1.17;0.40;;;14.60;67.90;;;;;;2535957;54;20966;-70
2023/03/25 10:46:33;;;;;;;1.05;0.35;;;14.60;68.50;;;;;;2535811;54;20963;-70
2023/03/25 10:48:59;;;;;;;0.62;0.30;;;14.70;68.10;;;;;;2537319;54;20971;-70
2023/03/25 10:51:32;;;;;;;2.50;0.50;;;14.80;69.10;;;;;;2536157;54;21460;-70
2023/03/25 10:53:59;;;;;;;1.73;0.32;;;14.80;69.10;;;;;;2536905;54;20968;-70
2023/03/25 10:56:35;;;;;;;2.75;0.55;;;14.90;69.20;;;;;;2536037;54;20947;-70
2023/03/25 11:00:31;;;;;;;2.80;0.50;;;15.00;69.00;;;;;;2536661;54;20987;-70
2023/03/25 11:02:57;;;;;;;2.33;0.50;;;15.10;67.40;;;;;;2536811;54;21079;-70
2023/03/25 11:05:26;;;;;;;1.08;0.30;;;15.20;68.90;;;;;;2535954;54;20952;-70
2023/03/25 11:07:54;;;;;;;2.08;0.40;;;15.20;68.50;;;;;;2298775;55;21092;-69
2023/03/25 11:10:33;;;;;;;1.83;0.50;;;15.30;68.40;;;;;;2536607;54;22091;-69
2023/03/25 11:13:05;;;;;;;1.90;0.50;;;15.40;67.40;;;;;;2301343;55;20980;-70
2023/03/25 11:15:36;;;;;;;3.08;0.77;;;15.40;67.90;;;;;;2537121;54;21003;-69
2023/03/25 11:18:13;;;;;;;2.25;0.47;;;15.30;67.00;;;;;;2536798;54;22009;-70
2023/03/25 11:20:45;;;;;;;3.78;0.70;;;15.50;67.40;;;;;;2298314;54;20963;-70
2023/03/25 11:23:26;;;;;;;3.95;0.90;;;15.50;67.30;;;;;;2298942;55;20939;-70
2023/03/25 11:25:53;;;;;;;2.17;0.80;;;15.50;66.50;;;;;;2302198;54;21426;-71
2023/03/25 11:28:40;;;;;;;2.15;0.60;;;15.50;66.70;;;;;;2299335;54;20939;-70
2023/03/25 11:31:40;;;;;;;5.28;1.08;;;15.50;65.70;;;;;;2299129;55;20975;-70
2023/03/25 11:34:18;;;;;;;2.53;0.70;;;15.50;66.60;;;;;;2299688;55;20953;-70
2023/03/25 11:37:40;;;;;;;1.48;0.50;;;15.50;66.60;;;;;;2299420;55;21007;-70
2023/03/25 11:40:15;;;;;;;1.90;0.52;;;15.50;66.60;;;;;;2538375;54;21047;-70
2023/03/25 11:42:48;;;;;;;1.98;0.50;;;15.50;67.00;;;;;;2299113;55;22051;-71
2023/03/25 11:45:22;;;;;;;0.85;0.32;;;15.50;67.50;;;;;;2538573;54;22004;-70
2023/03/25 11:47:49;;;;;;;2.53;0.73;;;15.40;67.70;;;;;;2538917;54;20996;-71
2023/03/25 11:50:23;;;;;;;1.77;0.50;;;15.50;68.20;;;;;;2300430;55;20983;-70
2023/03/25 11:52:52;;;;;;;1.92;0.60;;;15.60;67.80;;;;;;2300898;55;20983;-70
2023/03/25 11:55:22;;;;;;;2.25;0.60;;;15.60;68.00;;;;;;2539142;54;20959;-70
2023/03/25 11:57:49;;;;;;;2.55;0.70;;;15.70;67.60;;;;;;2303712;55;21033;-70
2023/03/25 12:00:49;;;;;;;3.08;0.70;;;15.70;67.50;;;;;;2539111;53;20951;-70
2023/03/25 12:03:21;;;;;;;2.22;0.73;;;15.70;65.30;;;;;;2540102;54;21090;-70
2023/03/25 12:06:04;;;;;;;2.55;0.70;;;15.70;66.40;;;;;;2539663;54;21275;-70
2023/03/25 12:09:03;;;;;;;2.20;0.60;;;15.80;65.70;;;;;;2539541;54;21560;-70
2023/03/25 12:11:54;;;;;;;2.35;0.70;;;15.70;65.50;;;;;;2301276;55;20931;-69
2023/03/25 12:14:48;;;;;;;3.05;0.80;;;15.70;65.10;;;;;;2539973;54;20960;-70
2023/03/25 12:17:42;;;;;;;1.83;0.62;;;15.70;65.80;;;;;;2303250;55;20970;-71
2023/03/25 12:20:38;;;;;;;3.87;1.00;;;15.70;65.20;;;;;;2546333;54;20940;-71
2023/03/25 12:23:46;;;;;;;1.80;0.70;;;15.60;64.90;;;;;;2307347;55;20965;-70
2023/03/25 12:26:17;;;;;;;2.55;0.77;;;15.60;65.50;;;;;;2303339;55;21031;-71
2023/03/25 12:29:07;;;;;;;2.67;0.82;;;15.60;66.90;;;;;;2543047;54;21054;-70
2023/03/25 12:32:02;;;;;;;2.72;0.93;;;15.60;67.00;;;;;;2306256;55;21372;-70
2023/03/25 12:35:27;;;;;;;2.60;0.93;;;15.60;67.50;;;;;;2543664;54;20904;-70
2023/03/25 12:38:21;;;;;;;3.30;0.77;;;15.70;67.80;;;;;;2303506;55;22054;-71
2023/03/25 12:44:02;;;;;;;2.20;0.73;;;15.80;69.10;;;;;;2542844;53;20952;-71
2023/03/25 12:48:16;;;;;;;1.70;0.50;;;16.00;68.50;;;;;;2540536;54;20993;-71
2023/03/25 12:51:20;;;;;;;2.10;0.52;;;16.10;69.60;;;;;;2301674;55;20987;-70
2023/03/25 12:54:00;;;;;;;2.92;0.65;;;16.30;69.30;;;;;;2301671;55;21098;-71
2023/03/25 12:57:22;;;;;;;3.12;0.60;;;16.40;69.50;;;;;;2300967;55;20944;-70
2023/03/25 13:06:42;;;;;;;2.92;0.88;;;16.50;67.40;;;;;;2539508;54;20963;-70
2023/03/25 13:09:59;;;;;;;2.72;0.60;;;16.60;68.70;;;;;;2303158;55;21534;-70
2023/03/25 13:19:21;;;;;;;1.85;0.60;;;16.80;66.20;;;;;;2538551;53;21003;-70
2023/03/25 13:21:58;;;;;;;2.05;0.40;;;16.80;67.30;;;;;;2301265;55;20972;-72
2023/03/25 13:24:54;;;;;;;2.55;0.70;;;16.90;68.20;;;;;;2539125;54;20955;-71
2023/03/25 13:27:21;;;;;;;2.20;0.60;;;16.90;68.10;;;;;;2303245;55;21419;-71
2023/03/25 13:29:59;;;;;;;1.67;0.50;;;16.90;68.50;;;;;;2538114;53;21832;-72
2023/03/25 13:33:12;;;;;;;1.70;0.70;;;16.90;67.70;;;;;;2539091;54;21007;-70
2023/03/25 13:38:39;;;;;;;1.62;0.60;;;17.00;66.90;;;;;;2303334;54;22004;-71
2023/03/25 13:41:13;;;;;;;1.95;0.45;;;17.10;66.40;;;;;;2538652;53;20976;-71
2023/03/25 13:43:57;;;;;;;3.12;0.52;;;17.10;67.70;;;;;;2301756;55;21000;-72
2023/03/25 13:46:35;;;;;;;2.65;0.80;;;17.20;67.20;;;;;;2298700;55;20995;-73
2023/03/25 13:49:14;;;;;;;2.15;0.70;;;17.20;67.50;;;;;;2300190;55;21549;-74
2023/03/25 13:51:41;;;;;;;2.90;0.68;;;17.20;67.50;;;;;;2299922;55;21445;-72
2023/03/25 13:59:23;;;;;;;2.62;0.57;;;17.30;67.80;;;;;;2300591;55;20944;-73
2023/03/25 14:05:17;;;;;;;2.60;0.60;;;17.40;65.50;;;;;;2537729;54;21004;-72
2023/03/25 14:11:17;;;;;;;2.05;0.55;;;17.50;66.10;;;;;;2299689;55;20935;-74
2023/03/25 14:13:45;;;;;;;4.35;1.08;;;17.50;65.60;;;;;;2298678;55;21030;-70
2023/03/25 14:16:16;;;;;;;7.10;1.25;;;17.40;65.70;;;;;;2536981;54;20928;-70
2023/03/25 14:18:57;;;;;;;3.17;0.95;;;17.40;65.40;;;;;;2531839;54;21471;-71
2023/03/25 14:21:39;;;;;;;4.20;1.20;;;17.30;64.10;;;;;;2531598;53;21509;-70